createdAt,value
2016-10-06T00:00:09.309Z,0
2016-10-06T00:00:49.975Z,0
2016-10-06T00:01:30.674Z,0
2016-10-06T00:02:11.408Z,0
2016-10-06T00:02:52.087Z,0
2016-10-06T00:03:32.788Z,0
2016-10-06T00:04:13.502Z,0
2016-10-06T00:04:54.204Z,0
2016-10-06T00:05:34.883Z,0
2016-10-06T00:06:15.626Z,0
2016-10-06T00:06:56.288Z,0
2016-10-06T00:07:37.034Z,0
2016-10-06T00:08:17.735Z,0
2016-10-06T00:08:58.411Z,0
2016-10-06T00:09:39.152Z,0
2016-10-06T00:10:19.812Z,0
2016-10-06T00:11:00.493Z,0
2016-10-06T00:11:41.183Z,0
2016-10-06T00:12:21.885Z,0
2016-10-06T00:13:02.571Z,0
2016-10-06T00:13:43.267Z,0
2016-10-06T00:14:23.956Z,0
2016-10-06T00:15:04.638Z,0
2016-10-06T00:15:45.293Z,0
2016-10-06T00:16:26.011Z,0
2016-10-06T00:17:06.636Z,0
2016-10-06T00:17:47.301Z,0
2016-10-06T00:18:28.003Z,0
2016-10-06T00:19:08.751Z,0
2016-10-06T00:19:49.432Z,0
2016-10-06T00:20:30.122Z,0
2016-10-06T00:21:10.767Z,0
2016-10-06T00:21:51.476Z,0
2016-10-06T00:22:32.121Z,0
2016-10-06T00:23:12.801Z,0
2016-10-06T00:23:53.505Z,0
2016-10-06T00:24:34.173Z,0
2016-10-06T00:25:14.848Z,0
2016-10-06T00:25:55.534Z,0
2016-10-06T00:26:36.224Z,0
2016-10-06T00:27:16.936Z,0
2016-10-06T00:27:57.624Z,0
2016-10-06T00:28:38.250Z,0
2016-10-06T00:29:18.936Z,0
2016-10-06T00:29:59.592Z,0
2016-10-06T00:30:40.303Z,0
2016-10-06T00:31:21.009Z,0
2016-10-06T00:32:01.660Z,0
2016-10-06T00:32:42.307Z,0
2016-10-06T00:33:23.013Z,0
2016-10-06T00:34:03.672Z,0
2016-10-06T00:34:44.366Z,0
2016-10-06T00:35:25.057Z,0
2016-10-06T00:36:05.793Z,0
2016-10-06T00:36:46.527Z,0
2016-10-06T00:37:27.177Z,0
2016-10-06T00:38:07.887Z,0
2016-10-06T00:38:48.576Z,0
2016-10-06T00:39:29.251Z,0
2016-10-06T00:40:09.926Z,0
2016-10-06T00:40:50.585Z,0
2016-10-06T00:41:31.288Z,0
2016-10-06T00:42:11.949Z,0
2016-10-06T00:42:52.631Z,0
2016-10-06T00:43:33.301Z,0
2016-10-06T00:44:13.963Z,0
2016-10-06T00:44:54.690Z,0
2016-10-06T00:45:35.365Z,0
2016-10-06T00:46:16.031Z,0
2016-10-06T00:46:56.718Z,0
2016-10-06T00:47:37.405Z,0
2016-10-06T00:48:18.109Z,0
2016-10-06T00:48:58.760Z,0
2016-10-06T00:49:39.431Z,0
2016-10-06T00:50:20.083Z,0
2016-10-06T00:51:00.781Z,0
2016-10-06T00:51:41.530Z,0
2016-10-06T00:52:22.226Z,0
2016-10-06T00:53:02.904Z,0
2016-10-06T00:53:43.573Z,0
2016-10-06T00:54:24.240Z,0
2016-10-06T00:55:04.943Z,0
2016-10-06T00:55:45.578Z,0
2016-10-06T00:56:26.309Z,0
2016-10-06T00:57:06.975Z,0
2016-10-06T00:57:47.663Z,0
2016-10-06T00:58:28.349Z,0
2016-10-06T00:59:09.053Z,0
2016-10-06T00:59:49.705Z,0
2016-10-06T01:00:30.397Z,0
2016-10-06T01:01:11.075Z,0
2016-10-06T01:01:51.783Z,0
2016-10-06T01:02:32.484Z,0
2016-10-06T01:03:13.174Z,0
2016-10-06T01:03:53.905Z,0
2016-10-06T01:04:34.600Z,0
2016-10-06T01:05:15.310Z,0
2016-10-06T01:05:55.982Z,0
2016-10-06T01:06:36.693Z,0
2016-10-06T01:07:17.339Z,0
2016-10-06T01:07:58.051Z,0
2016-10-06T01:08:38.721Z,0
2016-10-06T01:09:19.409Z,0
2016-10-06T01:10:00.068Z,0
2016-10-06T01:10:40.796Z,0
2016-10-06T01:11:21.547Z,0
2016-10-06T01:12:02.191Z,0
2016-10-06T01:12:42.859Z,0
2016-10-06T01:13:23.558Z,0
2016-10-06T01:14:04.203Z,0
2016-10-06T01:14:44.931Z,0
2016-10-06T01:15:25.620Z,0
2016-10-06T01:16:06.297Z,0
2016-10-06T01:16:46.976Z,0
2016-10-06T01:17:27.634Z,0
2016-10-06T01:18:08.327Z,0
2016-10-06T01:18:49.016Z,0
2016-10-06T01:19:29.721Z,0
2016-10-06T01:20:10.430Z,0
2016-10-06T01:20:51.098Z,0
2016-10-06T01:21:31.781Z,0
2016-10-06T01:22:12.464Z,0
2016-10-06T01:22:53.163Z,0
2016-10-06T01:23:33.803Z,0
2016-10-06T01:24:14.489Z,0
2016-10-06T01:24:55.191Z,0
2016-10-06T01:25:35.922Z,0
2016-10-06T01:26:16.604Z,0
2016-10-06T01:26:57.291Z,0
2016-10-06T01:27:37.936Z,0
2016-10-06T01:28:18.660Z,0
2016-10-06T01:28:59.343Z,0
2016-10-06T01:29:40.012Z,0
2016-10-06T01:30:20.757Z,0
2016-10-06T01:31:01.428Z,0
2016-10-06T01:31:42.082Z,0
2016-10-06T01:32:22.776Z,0
2016-10-06T01:33:03.446Z,0
2016-10-06T01:33:44.124Z,0
2016-10-06T01:34:24.869Z,0
2016-10-06T01:35:05.565Z,0
2016-10-06T01:35:46.278Z,0
2016-10-06T01:36:26.944Z,0
2016-10-06T01:37:07.626Z,0
2016-10-06T01:37:48.352Z,0
2016-10-06T01:38:29.047Z,0
2016-10-06T01:39:09.713Z,0
2016-10-06T01:39:50.379Z,0
2016-10-06T01:40:31.055Z,0
2016-10-06T01:41:11.749Z,0
2016-10-06T01:41:52.443Z,0
2016-10-06T01:42:33.159Z,0
2016-10-06T01:43:13.858Z,0
2016-10-06T01:43:54.537Z,0
2016-10-06T01:44:35.231Z,0
2016-10-06T01:45:15.970Z,0
2016-10-06T01:45:56.649Z,0
2016-10-06T01:46:37.304Z,0
2016-10-06T01:47:18.018Z,0
2016-10-06T01:47:58.691Z,0
2016-10-06T01:48:39.394Z,0
2016-10-06T01:49:20.066Z,0
2016-10-06T01:50:00.786Z,0
2016-10-06T01:50:41.443Z,0
2016-10-06T01:51:22.100Z,0
2016-10-06T01:52:02.815Z,0
2016-10-06T01:52:43.578Z,0
2016-10-06T01:53:24.290Z,0
2016-10-06T01:54:04.951Z,0
2016-10-06T01:54:45.577Z,0
2016-10-06T01:55:26.214Z,0
2016-10-06T01:56:06.920Z,0
2016-10-06T01:56:47.578Z,0
2016-10-06T01:57:28.229Z,0
2016-10-06T01:58:08.918Z,0
2016-10-06T01:58:49.640Z,0
2016-10-06T01:59:30.299Z,0
2016-10-06T02:00:10.988Z,0
2016-10-06T02:00:51.680Z,0
2016-10-06T02:01:32.400Z,0
2016-10-06T02:02:13.082Z,0
2016-10-06T02:02:53.804Z,0
2016-10-06T02:03:34.527Z,0
2016-10-06T02:04:15.196Z,0
2016-10-06T02:04:55.874Z,0
2016-10-06T02:05:36.561Z,0
2016-10-06T02:06:17.246Z,0
2016-10-06T02:06:57.941Z,0
2016-10-06T02:07:38.647Z,0
2016-10-06T02:08:19.316Z,0
2016-10-06T02:09:00.027Z,0
2016-10-06T02:09:40.729Z,0
2016-10-06T02:10:21.439Z,0
2016-10-06T02:11:02.130Z,0
2016-10-06T02:11:42.830Z,0
2016-10-06T02:12:23.516Z,0
2016-10-06T02:13:04.166Z,0
2016-10-06T02:13:44.860Z,0
2016-10-06T02:14:25.568Z,0
2016-10-06T02:15:06.254Z,0
2016-10-06T02:15:46.950Z,0
2016-10-06T02:16:27.587Z,0
2016-10-06T02:17:08.300Z,0
2016-10-06T02:17:48.958Z,0
2016-10-06T02:18:29.628Z,0
2016-10-06T02:19:10.303Z,0
2016-10-06T02:19:50.991Z,0
2016-10-06T02:20:31.724Z,0
2016-10-06T02:21:12.394Z,0
2016-10-06T02:21:53.105Z,0
2016-10-06T02:22:33.806Z,0
2016-10-06T02:23:14.473Z,0
2016-10-06T02:23:55.125Z,0
2016-10-06T02:24:35.794Z,0
2016-10-06T02:25:16.492Z,0
2016-10-06T02:25:57.184Z,0
2016-10-06T02:26:37.911Z,0
2016-10-06T02:27:18.565Z,0
2016-10-06T02:27:59.267Z,0
2016-10-06T02:28:39.968Z,0
2016-10-06T02:29:20.661Z,0
2016-10-06T02:30:01.407Z,0
2016-10-06T02:30:42.071Z,0
2016-10-06T02:31:22.723Z,0
2016-10-06T02:32:03.414Z,0
2016-10-06T02:32:44.100Z,0
2016-10-06T02:33:24.764Z,0
2016-10-06T02:34:05.486Z,0
2016-10-06T02:34:46.195Z,0
2016-10-06T02:35:26.913Z,0
2016-10-06T02:36:07.609Z,0
2016-10-06T02:36:48.283Z,0
2016-10-06T02:37:28.989Z,0
2016-10-06T02:38:09.633Z,0
2016-10-06T02:38:50.295Z,0
2016-10-06T02:39:30.940Z,0
2016-10-06T02:40:11.646Z,0
2016-10-06T02:40:52.307Z,0
2016-10-06T02:41:33.022Z,0
2016-10-06T02:42:13.692Z,0
2016-10-06T02:42:54.367Z,0
2016-10-06T02:43:35.091Z,0
2016-10-06T02:44:15.781Z,0
2016-10-06T02:44:56.473Z,0
2016-10-06T02:45:37.141Z,0
2016-10-06T02:46:17.855Z,0
2016-10-06T02:46:58.516Z,0
2016-10-06T02:47:39.187Z,0
2016-10-06T02:48:19.907Z,0
2016-10-06T02:49:00.613Z,0
2016-10-06T02:49:41.304Z,0
2016-10-06T02:50:22.001Z,0
2016-10-06T02:51:02.665Z,0
2016-10-06T02:51:43.313Z,0
2016-10-06T02:52:23.999Z,0
2016-10-06T02:53:04.635Z,0
2016-10-06T02:53:45.363Z,0
2016-10-06T02:54:26.045Z,0
2016-10-06T02:55:06.771Z,0
2016-10-06T02:55:47.471Z,0
2016-10-06T02:56:28.119Z,0
2016-10-06T02:57:08.824Z,0
2016-10-06T02:57:49.494Z,0
2016-10-06T02:58:30.208Z,0
2016-10-06T02:59:10.879Z,0
2016-10-06T02:59:51.589Z,0
2016-10-06T03:00:32.209Z,0
2016-10-06T03:01:12.933Z,0
2016-10-06T03:01:53.624Z,0
2016-10-06T03:02:34.285Z,0
2016-10-06T03:03:15.012Z,0
2016-10-06T03:03:55.712Z,0
2016-10-06T03:04:36.422Z,0
2016-10-06T03:05:17.106Z,0
2016-10-06T03:05:57.800Z,0
2016-10-06T03:06:38.483Z,0
2016-10-06T03:07:19.195Z,0
2016-10-06T03:07:59.910Z,0
2016-10-06T03:08:40.650Z,0
2016-10-06T03:09:21.370Z,0
2016-10-06T03:10:02.058Z,0
2016-10-06T03:10:42.732Z,0
2016-10-06T03:11:23.376Z,0
2016-10-06T03:12:04.074Z,0
2016-10-06T03:12:44.768Z,0
2016-10-06T03:13:25.483Z,0
2016-10-06T03:14:06.184Z,0
2016-10-06T03:14:46.836Z,0
2016-10-06T03:15:27.566Z,0
2016-10-06T03:16:08.314Z,0
2016-10-06T03:16:48.997Z,0
2016-10-06T03:17:29.668Z,0
2016-10-06T03:18:10.347Z,0
2016-10-06T03:18:51.043Z,0
2016-10-06T03:19:31.699Z,0
2016-10-06T03:20:12.407Z,0
2016-10-06T03:20:53.081Z,0
2016-10-06T03:21:33.725Z,0
2016-10-06T03:22:14.450Z,0
2016-10-06T03:22:55.166Z,0
2016-10-06T03:23:35.822Z,0
2016-10-06T03:24:16.507Z,0
2016-10-06T03:24:57.208Z,0
2016-10-06T03:25:37.917Z,0
2016-10-06T03:26:18.593Z,0
2016-10-06T03:26:59.283Z,0
2016-10-06T03:27:40.012Z,0
2016-10-06T03:28:20.650Z,0
2016-10-06T03:29:01.347Z,0
2016-10-06T03:29:42.020Z,0
2016-10-06T03:30:22.724Z,0
2016-10-06T03:31:03.447Z,0
2016-10-06T03:31:44.089Z,0
2016-10-06T03:32:24.785Z,0
2016-10-06T03:33:05.469Z,0
2016-10-06T03:33:46.161Z,0
2016-10-06T03:34:26.806Z,0
2016-10-06T03:35:07.532Z,0
2016-10-06T03:35:48.201Z,0
2016-10-06T03:36:28.900Z,0
2016-10-06T03:37:09.583Z,0
2016-10-06T03:37:50.225Z,0
2016-10-06T03:38:30.929Z,0
2016-10-06T03:39:11.581Z,0
2016-10-06T03:39:52.248Z,0
2016-10-06T03:40:32.940Z,0
2016-10-06T03:41:13.603Z,0
2016-10-06T03:41:54.307Z,0
2016-10-06T03:42:34.960Z,0
2016-10-06T03:43:15.662Z,0
2016-10-06T03:43:56.366Z,0
2016-10-06T03:44:37.026Z,0
2016-10-06T03:45:17.674Z,0
2016-10-06T03:45:58.345Z,0
2016-10-06T03:46:39.004Z,0
2016-10-06T03:47:19.688Z,0
2016-10-06T03:48:00.408Z,0
2016-10-06T03:48:41.126Z,0
2016-10-06T03:49:21.783Z,0
2016-10-06T03:50:02.514Z,0
2016-10-06T03:50:43.208Z,0
2016-10-06T03:51:23.864Z,0
2016-10-06T03:52:04.578Z,0
2016-10-06T03:52:45.195Z,0
2016-10-06T03:53:25.924Z,0
2016-10-06T03:54:06.575Z,0
2016-10-06T03:54:47.315Z,0
2016-10-06T03:55:27.943Z,0
2016-10-06T03:56:08.638Z,0
2016-10-06T03:56:49.322Z,0
2016-10-06T03:57:29.967Z,0
2016-10-06T03:58:10.638Z,0
2016-10-06T03:58:51.341Z,0
2016-10-06T03:59:32.038Z,0
2016-10-06T04:00:12.701Z,0
2016-10-06T04:00:53.434Z,0
2016-10-06T04:01:34.115Z,0
2016-10-06T04:02:14.843Z,0
2016-10-06T04:02:55.537Z,0
2016-10-06T04:03:36.233Z,0
2016-10-06T04:04:16.934Z,0
2016-10-06T04:04:57.644Z,0
2016-10-06T04:05:38.327Z,0
2016-10-06T04:06:19.045Z,0
2016-10-06T04:06:59.696Z,0
2016-10-06T04:07:40.374Z,0
2016-10-06T04:08:21.048Z,0
2016-10-06T04:09:01.727Z,0
2016-10-06T04:09:42.445Z,0
2016-10-06T04:10:23.131Z,0
2016-10-06T04:11:03.812Z,0
2016-10-06T04:11:44.526Z,0
2016-10-06T04:12:25.188Z,0
2016-10-06T04:13:05.870Z,0
2016-10-06T04:13:46.564Z,0
2016-10-06T04:14:27.280Z,0
2016-10-06T04:15:07.999Z,0
2016-10-06T04:15:48.714Z,0
2016-10-06T04:16:29.421Z,0
2016-10-06T04:17:10.118Z,0
2016-10-06T04:17:50.779Z,0
2016-10-06T04:18:31.434Z,0
2016-10-06T04:19:12.118Z,0
2016-10-06T04:19:52.811Z,0
2016-10-06T04:20:33.541Z,0
2016-10-06T04:21:14.205Z,0
2016-10-06T04:21:54.894Z,0
2016-10-06T04:22:35.595Z,0
2016-10-06T04:23:16.298Z,0
2016-10-06T04:23:56.955Z,0
2016-10-06T04:24:37.691Z,0
2016-10-06T04:25:18.373Z,0
2016-10-06T04:25:59.069Z,0
2016-10-06T04:26:39.746Z,0
2016-10-06T04:27:20.469Z,0
2016-10-06T04:28:01.167Z,0
2016-10-06T04:28:41.883Z,0
2016-10-06T04:29:22.573Z,0
2016-10-06T04:30:03.243Z,0
2016-10-06T04:30:43.919Z,0
2016-10-06T04:31:24.606Z,0
2016-10-06T04:32:05.312Z,0
2016-10-06T04:32:45.990Z,0
2016-10-06T04:33:26.675Z,0
2016-10-06T04:34:07.339Z,0
2016-10-06T04:34:48.027Z,0
2016-10-06T04:35:28.769Z,0
2016-10-06T04:36:09.485Z,0
2016-10-06T04:36:50.161Z,0
2016-10-06T04:37:30.836Z,0
2016-10-06T04:38:11.545Z,0
2016-10-06T04:38:52.217Z,0
2016-10-06T04:39:32.898Z,0
2016-10-06T04:40:13.602Z,0
2016-10-06T04:40:54.275Z,0
2016-10-06T04:41:34.963Z,0
2016-10-06T04:42:15.644Z,0
2016-10-06T04:42:56.312Z,0
2016-10-06T04:43:36.995Z,0
2016-10-06T04:44:17.715Z,0
2016-10-06T04:44:58.408Z,0
2016-10-06T04:45:39.098Z,0
2016-10-06T04:46:19.812Z,0
2016-10-06T04:47:00.481Z,0
2016-10-06T04:47:41.179Z,0
2016-10-06T04:48:21.848Z,0
2016-10-06T04:49:02.514Z,0
2016-10-06T04:49:43.230Z,0
2016-10-06T04:50:23.956Z,0
2016-10-06T04:51:04.618Z,0
2016-10-06T04:51:45.313Z,0
2016-10-06T04:52:26.003Z,0
2016-10-06T04:53:06.698Z,0
2016-10-06T04:53:47.385Z,0
2016-10-06T04:54:28.073Z,0
2016-10-06T04:55:08.831Z,0
2016-10-06T04:55:49.547Z,0
2016-10-06T04:56:30.209Z,0
2016-10-06T04:57:10.925Z,0
2016-10-06T04:57:51.601Z,0
2016-10-06T04:58:32.278Z,0
2016-10-06T04:59:12.987Z,0
2016-10-06T04:59:53.643Z,24
2016-10-06T05:00:34.364Z,28
2016-10-06T05:01:15.020Z,32
2016-10-06T05:01:55.716Z,32
2016-10-06T05:02:36.379Z,32
2016-10-06T05:03:17.051Z,32
2016-10-06T05:03:57.745Z,32
2016-10-06T05:04:38.453Z,32
2016-10-06T05:05:19.082Z,32
2016-10-06T05:05:59.738Z,32
2016-10-06T05:06:40.415Z,32
2016-10-06T05:07:21.101Z,32
2016-10-06T05:08:01.779Z,32
2016-10-06T05:08:42.465Z,32
2016-10-06T05:09:23.151Z,32
2016-10-06T05:10:03.875Z,32
2016-10-06T05:10:44.595Z,32
2016-10-06T05:11:25.249Z,32
2016-10-06T05:12:05.937Z,32
2016-10-06T05:12:46.633Z,32
2016-10-06T05:13:27.343Z,32
2016-10-06T05:14:08.078Z,32
2016-10-06T05:14:48.772Z,32
2016-10-06T05:15:29.448Z,32
2016-10-06T05:16:10.158Z,32
2016-10-06T05:16:50.876Z,32
2016-10-06T05:17:31.521Z,32
2016-10-06T05:18:12.259Z,32
2016-10-06T05:18:52.919Z,32
2016-10-06T05:19:33.600Z,32
2016-10-06T05:20:14.319Z,32
2016-10-06T05:20:55.017Z,32
2016-10-06T05:21:35.674Z,32
2016-10-06T05:22:16.374Z,32
2016-10-06T05:22:57.053Z,32
2016-10-06T05:23:37.748Z,32
2016-10-06T05:24:18.459Z,32
2016-10-06T05:24:59.119Z,32
2016-10-06T05:25:39.869Z,32
2016-10-06T05:26:20.611Z,32
2016-10-06T05:27:01.267Z,32
2016-10-06T05:27:41.935Z,32
2016-10-06T05:28:22.597Z,32
2016-10-06T05:29:03.282Z,32
2016-10-06T05:29:44.010Z,32
2016-10-06T05:30:24.706Z,32
2016-10-06T05:31:05.407Z,32
2016-10-06T05:31:46.054Z,32
2016-10-06T05:32:26.730Z,32
2016-10-06T05:33:07.446Z,32
2016-10-06T05:33:48.088Z,32
2016-10-06T05:34:28.736Z,32
2016-10-06T05:35:09.397Z,32
2016-10-06T05:35:50.069Z,32
2016-10-06T05:36:30.729Z,32
2016-10-06T05:37:11.443Z,32
2016-10-06T05:37:52.091Z,32
2016-10-06T05:38:32.789Z,32
2016-10-06T05:39:13.487Z,32
2016-10-06T05:39:54.188Z,32
2016-10-06T05:40:34.810Z,32
2016-10-06T05:41:15.503Z,32
2016-10-06T05:41:56.226Z,32
2016-10-06T05:42:36.933Z,32
2016-10-06T05:43:17.642Z,32
2016-10-06T05:43:58.339Z,32
2016-10-06T05:44:39.006Z,32
2016-10-06T05:45:19.735Z,32
2016-10-06T05:46:00.363Z,32
2016-10-06T05:46:41.053Z,32
2016-10-06T05:47:21.722Z,32
2016-10-06T05:48:02.410Z,32
2016-10-06T05:48:43.116Z,32
2016-10-06T05:49:23.769Z,32
2016-10-06T05:50:04.458Z,32
2016-10-06T05:50:45.114Z,32
2016-10-06T05:51:25.807Z,32
2016-10-06T05:52:06.493Z,32
2016-10-06T05:52:47.214Z,32
2016-10-06T05:53:27.862Z,36
2016-10-06T05:54:08.543Z,36
2016-10-06T05:54:49.225Z,36
2016-10-06T05:55:29.888Z,36
2016-10-06T05:56:10.610Z,36
2016-10-06T05:56:51.312Z,36
2016-10-06T05:57:32.014Z,36
2016-10-06T05:58:12.717Z,36
2016-10-06T05:58:53.451Z,36
2016-10-06T05:59:34.153Z,0
2016-10-06T06:00:14.844Z,0
2016-10-06T06:00:55.604Z,0
2016-10-06T06:01:36.316Z,0
2016-10-06T06:02:16.978Z,0
2016-10-06T06:02:57.652Z,0
2016-10-06T06:03:38.355Z,0
2016-10-06T06:04:19.032Z,0
2016-10-06T06:04:59.735Z,0
2016-10-06T06:05:40.394Z,0
2016-10-06T06:06:21.089Z,0
2016-10-06T06:07:01.791Z,0
2016-10-06T06:07:42.459Z,4
2016-10-06T06:08:23.118Z,4
2016-10-06T06:09:03.821Z,4
2016-10-06T06:09:44.540Z,4
2016-10-06T06:10:25.280Z,0
2016-10-06T06:11:05.926Z,0
2016-10-06T06:11:46.635Z,4
2016-10-06T06:12:27.314Z,4
2016-10-06T06:13:07.969Z,4
2016-10-06T06:13:48.642Z,4
2016-10-06T06:14:29.339Z,4
2016-10-06T06:15:10.036Z,4
2016-10-06T06:15:50.705Z,4
2016-10-06T06:16:31.426Z,8
2016-10-06T06:17:12.109Z,4
2016-10-06T06:17:52.802Z,4
2016-10-06T06:18:33.504Z,4
2016-10-06T06:19:14.203Z,8
2016-10-06T06:19:54.852Z,8
2016-10-06T06:20:35.548Z,368
2016-10-06T06:21:16.240Z,424
2016-10-06T06:21:56.981Z,440
2016-10-06T06:22:37.679Z,448
2016-10-06T06:23:18.356Z,452
2016-10-06T06:23:59.043Z,452
2016-10-06T06:24:39.698Z,456
2016-10-06T06:25:20.395Z,456
2016-10-06T06:26:01.104Z,456
2016-10-06T06:26:41.769Z,456
2016-10-06T06:27:22.468Z,456
2016-10-06T06:28:03.153Z,456
2016-10-06T06:28:43.889Z,456
2016-10-06T06:29:24.535Z,460
2016-10-06T06:30:05.248Z,456
2016-10-06T06:30:45.940Z,456
2016-10-06T06:31:26.640Z,460
2016-10-06T06:32:07.376Z,460
2016-10-06T06:32:48.106Z,460
2016-10-06T06:33:28.814Z,460
2016-10-06T06:34:09.525Z,464
2016-10-06T06:34:50.214Z,464
2016-10-06T06:35:30.905Z,464
2016-10-06T06:36:11.615Z,468
2016-10-06T06:36:52.331Z,468
2016-10-06T06:37:32.976Z,468
2016-10-06T06:38:13.687Z,468
2016-10-06T06:38:54.335Z,472
2016-10-06T06:39:34.990Z,468
2016-10-06T06:40:15.690Z,472
2016-10-06T06:40:56.357Z,472
2016-10-06T06:41:37.017Z,472
2016-10-06T06:42:17.750Z,472
2016-10-06T06:42:58.454Z,476
2016-10-06T06:43:39.180Z,472
2016-10-06T06:44:19.858Z,476
2016-10-06T06:45:00.579Z,472
2016-10-06T06:45:41.246Z,476
2016-10-06T06:46:21.959Z,476
2016-10-06T06:47:02.700Z,476
2016-10-06T06:47:43.374Z,480
2016-10-06T06:48:24.041Z,484
2016-10-06T06:49:04.784Z,484
2016-10-06T06:49:45.516Z,484
2016-10-06T06:50:26.169Z,484
2016-10-06T06:51:07.013Z,484
2016-10-06T06:51:47.702Z,484
2016-10-06T06:52:28.374Z,484
2016-10-06T06:53:09.059Z,484
2016-10-06T06:53:49.752Z,488
2016-10-06T06:54:30.457Z,488
2016-10-06T06:55:11.132Z,492
2016-10-06T06:55:51.832Z,488
2016-10-06T06:56:32.496Z,488
2016-10-06T06:57:13.168Z,492
2016-10-06T06:57:53.856Z,492
2016-10-06T06:58:34.606Z,496
2016-10-06T06:59:15.265Z,500
2016-10-06T06:59:55.948Z,500
2016-10-06T07:00:37.615Z,500
2016-10-06T07:01:18.319Z,500
2016-10-06T07:01:58.997Z,504
2016-10-06T07:02:39.672Z,504
2016-10-06T07:03:20.335Z,504
2016-10-06T07:04:01.041Z,504
2016-10-06T07:04:41.770Z,504
2016-10-06T07:05:22.458Z,508
2016-10-06T07:06:03.167Z,512
2016-10-06T07:06:43.865Z,504
2016-10-06T07:07:24.538Z,504
2016-10-06T07:08:05.234Z,508
2016-10-06T07:08:45.947Z,508
2016-10-06T07:09:26.635Z,516
2016-10-06T07:10:07.269Z,512
2016-10-06T07:10:48.022Z,520
2016-10-06T07:11:28.709Z,520
2016-10-06T07:12:09.406Z,516
2016-10-06T07:12:50.182Z,512
2016-10-06T07:13:30.926Z,508
2016-10-06T07:14:11.677Z,500
2016-10-06T07:14:52.934Z,496
2016-10-06T07:15:33.610Z,500
2016-10-06T07:16:14.334Z,496
2016-10-06T07:16:55.040Z,496
2016-10-06T07:17:35.744Z,496
2016-10-06T07:18:16.419Z,496
2016-10-06T07:18:57.132Z,496
2016-10-06T07:19:37.870Z,496
2016-10-06T07:20:18.548Z,500
2016-10-06T07:20:59.234Z,500
2016-10-06T07:21:39.915Z,496
2016-10-06T07:22:20.633Z,496
2016-10-06T07:23:01.322Z,496
2016-10-06T07:23:42.021Z,500
2016-10-06T07:24:22.719Z,496
2016-10-06T07:25:03.462Z,500
2016-10-06T07:25:44.176Z,496
2016-10-06T07:26:24.858Z,500
2016-10-06T07:27:05.570Z,500
2016-10-06T07:27:46.290Z,500
2016-10-06T07:28:26.995Z,500
2016-10-06T07:29:07.733Z,504
2016-10-06T07:29:48.453Z,504
2016-10-06T07:30:29.142Z,508
2016-10-06T07:31:09.858Z,508
2016-10-06T07:31:50.558Z,516
2016-10-06T07:32:31.297Z,516
2016-10-06T07:33:11.972Z,520
2016-10-06T07:33:52.675Z,520
2016-10-06T07:34:33.393Z,524
2016-10-06T07:35:14.080Z,528
2016-10-06T07:35:54.819Z,528
2016-10-06T07:36:35.527Z,528
2016-10-06T07:37:16.219Z,528
2016-10-06T07:37:56.970Z,548
2016-10-06T07:38:37.667Z,556
2016-10-06T07:39:18.363Z,552
2016-10-06T07:39:59.081Z,560
2016-10-06T07:40:39.761Z,556
2016-10-06T07:41:20.539Z,540
2016-10-06T07:42:01.223Z,536
2016-10-06T07:42:41.943Z,540
2016-10-06T07:43:22.688Z,548
2016-10-06T07:44:03.371Z,532
2016-10-06T07:44:44.037Z,540
2016-10-06T07:45:24.755Z,548
2016-10-06T07:46:05.457Z,552
2016-10-06T07:46:46.129Z,552
2016-10-06T07:47:26.857Z,548
2016-10-06T07:48:07.690Z,548
2016-10-06T07:48:48.376Z,552
2016-10-06T07:49:29.714Z,544
2016-10-06T07:50:10.414Z,556
2016-10-06T07:50:51.163Z,564
2016-10-06T07:51:31.890Z,560
2016-10-06T07:52:12.635Z,560
2016-10-06T07:52:53.333Z,572
2016-10-06T07:53:34.056Z,572
2016-10-06T07:54:14.799Z,576
2016-10-06T07:54:55.524Z,568
2016-10-06T07:55:36.258Z,572
2016-10-06T07:56:16.950Z,576
2016-10-06T07:56:57.703Z,580
2016-10-06T07:57:38.446Z,564
2016-10-06T07:58:19.176Z,544
2016-10-06T07:58:59.925Z,544
2016-10-06T07:59:40.658Z,536
2016-10-06T08:00:21.445Z,556
2016-10-06T08:01:02.964Z,552
2016-10-06T08:01:43.709Z,572
2016-10-06T08:02:24.379Z,580
2016-10-06T08:03:05.132Z,568
2016-10-06T08:03:45.887Z,572
2016-10-06T08:04:26.635Z,572
2016-10-06T08:05:07.384Z,564
2016-10-06T08:05:48.090Z,568
2016-10-06T08:06:28.847Z,568
2016-10-06T08:07:09.501Z,564
2016-10-06T08:07:50.243Z,560
2016-10-06T08:08:30.962Z,556
2016-10-06T08:09:11.707Z,552
2016-10-06T08:11:40.449Z,556
2016-10-06T08:12:21.194Z,568
2016-10-06T08:13:01.900Z,564
2016-10-06T08:13:42.605Z,564
2016-10-06T08:14:23.315Z,552
2016-10-06T08:15:04.024Z,540
2016-10-06T08:15:44.789Z,536
2016-10-06T08:16:25.590Z,532
2016-10-06T08:17:06.317Z,532
2016-10-06T08:17:47.059Z,532
2016-10-06T08:18:27.800Z,532
2016-10-06T08:19:08.588Z,532
2016-10-06T08:19:49.359Z,540
2016-10-06T08:20:30.070Z,540
2016-10-06T08:21:10.822Z,544
2016-10-06T08:21:51.567Z,548
2016-10-06T08:22:32.306Z,556
2016-10-06T08:23:12.990Z,560
2016-10-06T08:23:53.718Z,560
2016-10-06T08:24:34.395Z,564
2016-10-06T08:25:15.154Z,556
2016-10-06T08:25:55.866Z,544
2016-10-06T08:26:36.598Z,528
2016-10-06T08:27:17.339Z,532
2016-10-06T08:27:58.071Z,528
2016-10-06T08:28:38.784Z,532
2016-10-06T08:29:19.537Z,536
2016-10-06T08:30:00.205Z,544
2016-10-06T08:30:40.888Z,536
2016-10-06T08:31:21.585Z,532
2016-10-06T08:32:02.316Z,532
2016-10-06T08:32:43.100Z,532
2016-10-06T08:33:23.841Z,532
2016-10-06T08:34:04.641Z,532
2016-10-06T08:34:45.332Z,532
2016-10-06T08:35:26.074Z,536
2016-10-06T08:36:06.829Z,544
2016-10-06T08:36:47.488Z,560
2016-10-06T08:37:29.202Z,572
2016-10-06T08:38:09.008Z,568
2016-10-06T08:38:49.693Z,564
2016-10-06T08:39:30.393Z,556
2016-10-06T08:40:11.120Z,532
2016-10-06T08:40:51.872Z,524
2016-10-06T08:41:32.628Z,524
2016-10-06T08:42:13.316Z,524
2016-10-06T08:42:54.056Z,524
2016-10-06T08:43:34.715Z,528
2016-10-06T08:44:15.413Z,524
2016-10-06T08:44:56.163Z,524
2016-10-06T08:45:36.850Z,528
2016-10-06T08:46:17.514Z,532
2016-10-06T08:46:58.224Z,532
2016-10-06T08:47:38.976Z,536
2016-10-06T08:48:19.710Z,544
2016-10-06T08:49:01.207Z,548
2016-10-06T08:49:41.222Z,548
2016-10-06T08:50:21.990Z,560
2016-10-06T08:51:02.681Z,564
2016-10-06T08:51:43.392Z,564
2016-10-06T08:52:24.113Z,560
2016-10-06T08:53:04.859Z,560
2016-10-06T08:53:45.574Z,564
2016-10-06T08:54:26.247Z,560
2016-10-06T08:55:06.980Z,572
2016-10-06T08:55:47.693Z,572
2016-10-06T08:56:28.356Z,572
2016-10-06T08:57:09.082Z,568
2016-10-06T08:57:49.761Z,588
2016-10-06T08:58:30.443Z,604
2016-10-06T08:59:11.188Z,596
2016-10-06T08:59:51.882Z,600
2016-10-06T09:00:32.561Z,596
2016-10-06T09:01:13.277Z,600
2016-10-06T09:01:54.021Z,612
2016-10-06T09:02:34.705Z,616
2016-10-06T09:03:15.415Z,620
2016-10-06T09:03:56.139Z,620
2016-10-06T09:04:36.865Z,624
2016-10-06T09:05:17.644Z,624
2016-10-06T09:05:58.464Z,628
2016-10-06T09:06:39.221Z,624
2016-10-06T09:07:19.954Z,620
2016-10-06T09:08:00.681Z,624
2016-10-06T09:08:41.350Z,628
2016-10-06T09:09:22.082Z,628
2016-10-06T09:10:02.815Z,628
2016-10-06T09:10:43.540Z,620
2016-10-06T09:11:24.264Z,620
2016-10-06T09:12:05.011Z,616
2016-10-06T09:12:45.773Z,600
2016-10-06T09:13:26.485Z,596
2016-10-06T09:14:07.330Z,588
2016-10-06T09:14:48.019Z,584
2016-10-06T09:15:28.743Z,572
2016-10-06T09:16:09.510Z,568
2016-10-06T09:16:50.254Z,564
2016-10-06T09:17:30.969Z,560
2016-10-06T09:18:11.751Z,564
2016-10-06T09:18:52.471Z,524
2016-10-06T09:19:33.218Z,560
2016-10-06T09:20:13.945Z,556
2016-10-06T09:20:54.705Z,556
2016-10-06T09:21:35.400Z,560
2016-10-06T09:22:16.127Z,552
2016-10-06T09:22:56.882Z,552
2016-10-06T09:23:37.621Z,548
2016-10-06T09:24:18.387Z,544
2016-10-06T09:24:59.135Z,544
2016-10-06T09:25:39.846Z,540
2016-10-06T09:26:20.569Z,536
2016-10-06T09:27:01.286Z,536
2016-10-06T09:27:41.993Z,528
2016-10-06T09:28:22.711Z,532
2016-10-06T09:29:03.428Z,524
2016-10-06T09:29:44.180Z,524
2016-10-06T09:30:24.915Z,520
2016-10-06T09:31:06.229Z,528
2016-10-06T09:31:46.457Z,524
2016-10-06T09:32:27.247Z,528
2016-10-06T09:33:07.957Z,532
2016-10-06T09:33:48.700Z,540
2016-10-06T09:34:30.419Z,552
2016-10-06T09:35:11.215Z,568
2016-10-06T09:35:52.964Z,580
2016-10-06T09:36:33.744Z,580
2016-10-06T09:37:14.494Z,572
2016-10-06T09:37:55.154Z,556
2016-10-06T09:38:35.862Z,580
2016-10-06T09:39:16.600Z,596
2016-10-06T09:39:57.345Z,592
2016-10-06T09:40:38.057Z,588
2016-10-06T09:41:18.746Z,584
2016-10-06T09:41:59.458Z,568
2016-10-06T09:42:40.213Z,552
2016-10-06T09:43:20.948Z,552
2016-10-06T09:44:01.645Z,548
2016-10-06T09:44:42.395Z,552
2016-10-06T09:45:23.251Z,556
2016-10-06T09:46:04.045Z,556